sensor_id;sensor_type;location;lat;lon;timestamp;pressure;altitude;pressure_sealevel;temperature;humidity
7662;BME280;30314;48.184;11.510;2022-09-09T00:02:19;95724.09;;;14.30;100.00
7662;BME280;30314;48.184;11.510;2022-09-09T00:04:58;95737.41;;;14.30;100.00
7662;BME280;30314;48.184;11.510;2022-09-09T00:07:36;95720.22;;;14.18;100.00
7662;BME280;30314;48.184;11.510;2022-09-09T00:10:15;95737.09;;;14.31;100.00
7662;BME280;30314;48.184;11.510;2022-09-09T00:12:53;95730.97;;;14.31;100.00
7662;BME280;30314;48.184;11.510;2022-09-09T00:15:25;95726.47;;;14.31;100.00
7662;BME280;30314;48.184;11.510;2022-09-09T00:17:58;95726.47;;;14.22;100.00
7662;BME280;30314;48.184;11.510;2022-09-09T00:20:34;95725.53;;;14.18;100.00
7662;BME280;30314;48.184;11.510;2022-09-09T00:23:09;95704.63;;;14.08;100.00
7662;BME280;30314;48.184;11.510;2022-09-09T00:25:43;95718.03;;;14.12;100.00
7662;BME280;30314;48.184;11.510;2022-09-09T00:28:20;95717.09;;;14.16;100.00
7662;BME280;30314;48.184;11.510;2022-09-09T00:30:50;95730.69;;;14.23;100.00
7662;BME280;30314;48.184;11.510;2022-09-09T00:33:20;95724.44;;;14.19;100.00
7662;BME280;30314;48.184;11.510;2022-09-09T00:35:50;95726.03;;;14.20;100.00
7662;BME280;30314;48.184;11.510;2022-09-09T00:38:22;95718.03;;;14.20;100.00
7662;BME280;30314;48.184;11.510;2022-09-09T00:40:53;95718.19;;;14.15;100.00
7662;BME280;30314;48.184;11.510;2022-09-09T00:43:27;95718.19;;;14.15;100.00
7662;BME280;30314;48.184;11.510;2022-09-09T00:49:04;95723.97;;;14.17;100.00
7662;BME280;30314;48.184;11.510;2022-09-09T00:51:45;95708.88;;;14.00;100.00
7662;BME280;30314;48.184;11.510;2022-09-09T00:54:28;95716.97;;;14.04;100.00
7662;BME280;30314;48.184;11.510;2022-09-09T00:57:12;95716.34;;;13.98;100.00
7662;BME280;30314;48.184;11.510;2022-09-09T00:59:47;95717.31;;;13.93;100.00
7662;BME280;30314;48.184;11.510;2022-09-09T01:02:25;95713.88;;;13.84;100.00
7662;BME280;30314;48.184;11.510;2022-09-09T01:04:55;95718.56;;;13.87;100.00
7662;BME280;30314;48.184;11.510;2022-09-09T01:07:26;95689.03;;;13.62;100.00
7662;BME280;30314;48.184;11.510;2022-09-09T01:09:56;95718.72;;;13.73;100.00
7662;BME280;30314;48.184;11.510;2022-09-09T01:12:32;95708.25;;;13.59;100.00
7662;BME280;30314;48.184;11.510;2022-09-09T01:15:08;95713.88;;;13.58;100.00
7662;BME280;30314;48.184;11.510;2022-09-09T01:17:52;95723.72;;;13.66;100.00
7662;BME280;30314;48.184;11.510;2022-09-09T01:20:23;95719.97;;;13.67;100.00
7662;BME280;30314;48.184;11.510;2022-09-09T01:23:06;95722.63;;;13.58;100.00
7662;BME280;30314;48.184;11.510;2022-09-09T01:26:20;95719.50;;;13.65;100.00
7662;BME280;30314;48.184;11.510;2022-09-09T01:28:52;95720.16;;;13.62;100.00
7662;BME280;30314;48.184;11.510;2022-09-09T01:31:30;95714.66;;;13.58;100.00
7662;BME280;30314;48.184;11.510;2022-09-09T01:33:59;95712.78;;;13.59;100.00
7662;BME280;30314;48.184;11.510;2022-09-09T01:36:32;95722.00;;;13.61;100.00
7662;BME280;30314;48.184;11.510;2022-09-09T01:39:01;95699.50;;;13.50;100.00
7662;BME280;30314;48.184;11.510;2022-09-09T01:41:31;95724.50;;;13.66;100.00
7662;BME280;30314;48.184;11.510;2022-09-09T01:44:07;95710.75;;;13.47;100.00
7662;BME280;30314;48.184;11.510;2022-09-09T01:46:37;95716.22;;;13.59;100.00
7662;BME280;30314;48.184;11.510;2022-09-09T01:49:11;95667.44;;;13.20;100.00
7662;BME280;30314;48.184;11.510;2022-09-09T01:51:40;95707.63;;;13.45;100.00
7662;BME280;30314;48.184;11.510;2022-09-09T01:54:12;95728.72;;;13.50;100.00
7662;BME280;30314;48.184;11.510;2022-09-09T01:56:49;95722.00;;;13.44;100.00
7662;BME280;30314;48.184;11.510;2022-09-09T01:59:35;95721.03;;;13.39;100.00
7662;BME280;30314;48.184;11.510;2022-09-09T02:02:10;95672.88;;;12.97;100.00
7662;BME280;30314;48.184;11.510;2022-09-09T02:04:47;95704.00;;;13.23;100.00
7662;BME280;30314;48.184;11.510;2022-09-09T02:07:38;95717.44;;;13.35;100.00
7662;BME280;30314;48.184;11.510;2022-09-09T02:10:20;95680.38;;;13.13;100.00
7662;BME280;30314;48.184;11.510;2022-09-09T02:13:06;95704.16;;;13.27;100.00
7662;BME280;30314;48.184;11.510;2022-09-09T02:15:43;95705.88;;;13.31;100.00
7662;BME280;30314;48.184;11.510;2022-09-09T02:18:16;95692.59;;;13.31;100.00
7662;BME280;30314;48.184;11.510;2022-09-09T02:20:49;95692.28;;;13.24;100.00
7662;BME280;30314;48.184;11.510;2022-09-09T02:23:19;95704.63;;;13.29;100.00
7662;BME280;30314;48.184;11.510;2022-09-09T02:25:51;95691.81;;;13.22;100.00
7662;BME280;30314;48.184;11.510;2022-09-09T02:28:26;95700.25;;;13.24;100.00
7662;BME280;30314;48.184;11.510;2022-09-09T02:30:56;95664.75;;;12.93;100.00
7662;BME280;30314;48.184;11.510;2022-09-09T04:47:44;95652.44;;;13.77;100.00
7662;BME280;30314;48.184;11.510;2022-09-09T04:50:12;95567.19;;;13.25;100.00
7662;BME280;30314;48.184;11.510;2022-09-09T04:52:40;95643.19;;;14.01;100.00
7662;BME280;30314;48.184;11.510;2022-09-09T04:55:08;95557.97;;;13.23;100.00
7662;BME280;30314;48.184;11.510;2022-09-09T04:57:36;95567.97;;;13.17;100.00
7662;BME280;30314;48.184;11.510;2022-09-09T05:00:05;95658.41;;;13.74;100.00
7662;BME280;30314;48.184;11.510;2022-09-09T05:02:37;95562.22;;;12.97;100.00
7662;BME280;30314;48.184;11.510;2022-09-09T05:05:07;95642.78;;;13.55;100.00
7662;BME280;30314;48.184;11.510;2022-09-09T05:07:37;95629.97;;;13.39;100.00
7662;BME280;30314;48.184;11.510;2022-09-09T05:10:07;95662.50;;;13.45;100.00
7662;BME280;30314;48.184;11.510;2022-09-09T05:12:35;95633.56;;;13.34;100.00
7662;BME280;30314;48.184;11.510;2022-09-09T05:15:06;95556.91;;;12.71;100.00
7662;BME280;30314;48.184;11.510;2022-09-09T05:17:34;95654.78;;;13.43;100.00
7662;BME280;30314;48.184;11.510;2022-09-09T05:20:03;95632.94;;;13.20;100.00
7662;BME280;30314;48.184;11.510;2022-09-09T05:22:37;95665.25;;;13.39;100.00
7662;BME280;30314;48.184;11.510;2022-09-09T05:25:06;95608.25;;;13.02;100.00
7662;BME280;30314;48.184;11.510;2022-09-09T05:27:35;95673.72;;;13.42;100.00
7662;BME280;30314;48.184;11.510;2022-09-09T05:30:03;95607.63;;;12.87;100.00
7662;BME280;30314;48.184;11.510;2022-09-09T05:32:32;95594.81;;;12.80;100.00
7662;BME280;30314;48.184;11.510;2022-09-09T05:35:00;95568.72;;;12.47;100.00
7662;BME280;30314;48.184;11.510;2022-09-09T05:37:30;95673.69;;;13.24;100.00
7662;BME280;30314;48.184;11.510;2022-09-09T05:40:00;95560.00;;;12.55;100.00
7662;BME280;30314;48.184;11.510;2022-09-09T05:42:30;95649.81;;;13.15;100.00
7662;BME280;30314;48.184;11.510;2022-09-09T05:44:58;95561.44;;;12.62;100.00
7662;BME280;30314;48.184;11.510;2022-09-09T05:47:26;95549.25;;;12.61;100.00
7662;BME280;30314;48.184;11.510;2022-09-09T05:49:55;95612.81;;;13.10;100.00
7662;BME280;30314;48.184;11.510;2022-09-09T05:52:23;95640.91;;;13.37;100.00
7662;BME280;30314;48.184;11.510;2022-09-09T05:54:54;95652.31;;;13.29;100.00
7662;BME280;30314;48.184;11.510;2022-09-09T05:57:24;95529.09;;;12.60;100.00
7662;BME280;30314;48.184;11.510;2022-09-09T05:59:52;95561.72;;;12.78;100.00
7662;BME280;30314;48.184;11.510;2022-09-09T06:02:20;95626.84;;;13.37;100.00
7662;BME280;30314;48.184;11.510;2022-09-09T06:04:49;95675.28;;;13.69;100.00
7662;BME280;30314;48.184;11.510;2022-09-09T06:07:17;95635.78;;;13.50;100.00
7662;BME280;30314;48.184;11.510;2022-09-09T06:09:44;95590.31;;;13.16;100.00
7662;BME280;30314;48.184;11.510;2022-09-09T06:12:12;95628.41;;;13.56;100.00
7662;BME280;30314;48.184;11.510;2022-09-09T06:14:42;95695.22;;;14.10;100.00
7662;BME280;30314;48.184;11.510;2022-09-09T06:17:13;95607.97;;;13.56;100.00
7662;BME280;30314;48.184;11.510;2022-09-09T06:19:41;95698.78;;;14.23;100.00
7662;BME280;30314;48.184;11.510;2022-09-09T06:22:09;95630.56;;;13.89;100.00
7662;BME280;30314;48.184;11.510;2022-09-09T06:24:40;95658.63;;;14.07;100.00
7662;BME280;30314;48.184;11.510;2022-09-09T06:27:08;95575.94;;;13.52;100.00
7662;BME280;30314;48.184;11.510;2022-09-09T06:29:37;95578.13;;;13.50;100.00
7662;BME280;30314;48.184;11.510;2022-09-09T06:32:06;95584.31;;;13.72;100.00
7662;BME280;30314;48.184;11.510;2022-09-09T06:34:35;95625.06;;;13.94;100.00
7662;BME280;30314;48.184;11.510;2022-09-09T06:37:03;95679.19;;;14.37;100.00
7662;BME280;30314;48.184;11.510;2022-09-09T06:39:37;95629.06;;;14.18;100.00
7662;BME280;30314;48.184;11.510;2022-09-09T06:42:05;95681.63;;;14.51;100.00
7662;BME280;30314;48.184;11.510;2022-09-09T06:44:49;95596.63;;;13.94;100.00
7662;BME280;30314;48.184;11.510;2022-09-09T06:47:27;95681.78;;;14.55;100.00
7662;BME280;30314;48.184;11.510;2022-09-09T06:49:57;95611.09;;;14.06;100.00
7662;BME280;30314;48.184;11.510;2022-09-09T06:52:25;95709.72;;;14.78;100.00
7662;BME280;30314;48.184;11.510;2022-09-09T06:54:54;95671.00;;;14.51;100.00
7662;BME280;30314;48.184;11.510;2022-09-09T06:57:24;95697.38;;;14.65;100.00
7662;BME280;30314;48.184;11.510;2022-09-09T07:00:06;95661.66;;;14.45;100.00
7662;BME280;30314;48.184;11.510;2022-09-09T07:02:36;95709.59;;;14.66;100.00
7662;BME280;30314;48.184;11.510;2022-09-09T07:05:07;95710.69;;;14.65;100.00
7662;BME280;30314;48.184;11.510;2022-09-09T07:07:36;95661.72;;;14.27;100.00
7662;BME280;30314;48.184;11.510;2022-09-09T07:10:05;95647.25;;;14.07;100.00
7662;BME280;30314;48.184;11.510;2022-09-09T07:12:35;95700.31;;;14.33;100.00
7662;BME280;30314;48.184;11.510;2022-09-09T07:15:05;95636.94;;;13.97;100.00
7662;BME280;30314;48.184;11.510;2022-09-09T07:17:33;95761.84;;;14.79;100.00
7662;BME280;30314;48.184;11.510;2022-09-09T07:20:03;95732.16;;;14.60;100.00
7662;BME280;30314;48.184;11.510;2022-09-09T07:22:31;95746.38;;;14.73;100.00
7662;BME280;30314;48.184;11.510;2022-09-09T07:25:00;95654.88;;;14.08;100.00
7662;BME280;30314;48.184;11.510;2022-09-09T07:27:29;95729.84;;;14.49;100.00
7662;BME280;30314;48.184;11.510;2022-09-09T07:29:57;95683.13;;;14.31;100.00
7662;BME280;30314;48.184;11.510;2022-09-09T07:32:25;95643.47;;;14.08;100.00
7662;BME280;30314;48.184;11.510;2022-09-09T07:34:53;95755.41;;;14.80;100.00
7662;BME280;30314;48.184;11.510;2022-09-09T07:37:22;95764.81;;;14.87;100.00
7662;BME280;30314;48.184;11.510;2022-09-09T07:39:51;95671.44;;;14.14;100.00
7662;BME280;30314;48.184;11.510;2022-09-09T07:42:19;95764.91;;;14.90;100.00
7662;BME280;30314;48.184;11.510;2022-09-09T07:44:48;95709.19;;;14.55;100.00
7662;BME280;30314;48.184;11.510;2022-09-09T07:47:16;95758.09;;;14.80;100.00
7662;BME280;30314;48.184;11.510;2022-09-09T07:49:46;95779.78;;;14.91;100.00
7662;BME280;30314;48.184;11.510;2022-09-09T07:52:22;95679.84;;;14.25;100.00
7662;BME280;30314;48.184;11.510;2022-09-09T07:54:54;95786.06;;;14.96;100.00
7662;BME280;30314;48.184;11.510;2022-09-09T07:57:23;95785.25;;;14.95;100.00
7662;BME280;30314;48.184;11.510;2022-09-09T07:59:52;95713.88;;;14.49;100.00
7662;BME280;30314;48.184;11.510;2022-09-09T08:02:20;95783.06;;;14.97;100.00
7662;BME280;30314;48.184;11.510;2022-09-09T08:04:49;95758.22;;;14.84;100.00
7662;BME280;30314;48.184;11.510;2022-09-09T08:07:17;95792.25;;;15.08;100.00
7662;BME280;30314;48.184;11.510;2022-09-09T08:09:53;95693.06;;;14.51;100.00
7662;BME280;30314;48.184;11.510;2022-09-09T08:12:26;95803.28;;;15.28;100.00
7662;BME280;30314;48.184;11.510;2022-09-09T08:14:56;95791.25;;;15.22;100.00
7662;BME280;30314;48.184;11.510;2022-09-09T08:17:28;95710.03;;;14.68;100.00
7662;BME280;30314;48.184;11.510;2022-09-09T08:19:58;95709.59;;;14.66;100.00
7662;BME280;30314;48.184;11.510;2022-09-09T08:22:30;95792.19;;;15.17;100.00
7662;BME280;30314;48.184;11.510;2022-09-09T08:24:59;95799.56;;;15.20;100.00
7662;BME280;30314;48.184;11.510;2022-09-09T08:27:31;95786.75;;;15.14;100.00
7662;BME280;30314;48.184;11.510;2022-09-09T08:29:59;95773.97;;;14.98;100.00
7662;BME280;30314;48.184;11.510;2022-09-09T08:32:28;95724.44;;;14.67;100.00
7662;BME280;30314;48.184;11.510;2022-09-09T08:34:57;95777.38;;;15.07;100.00
7662;BME280;30314;48.184;11.510;2022-09-09T08:37:28;95783.00;;;15.15;100.00
7662;BME280;30314;48.184;11.510;2022-09-09T08:39:56;95790.19;;;15.14;100.00
7662;BME280;30314;48.184;11.510;2022-09-09T08:42:36;95826.75;;;15.35;100.00
7662;BME280;30314;48.184;11.510;2022-09-09T08:45:24;95769.75;;;14.97;100.00
7662;BME280;30314;48.184;11.510;2022-09-09T08:48:14;95814.56;;;15.25;100.00
7662;BME280;30314;48.184;11.510;2022-09-09T08:50:49;95796.75;;;15.17;100.00
7662;BME280;30314;48.184;11.510;2022-09-09T08:53:28;95713.50;;;14.69;100.00
7662;BME280;30314;48.184;11.510;2022-09-09T08:56:01;95810.44;;;15.36;100.00
7662;BME280;30314;48.184;11.510;2022-09-09T08:59:00;95811.47;;;15.44;100.00
7662;BME280;30314;48.184;11.510;2022-09-09T09:01:44;95800.56;;;15.37;100.00
7662;BME280;30314;48.184;11.510;2022-09-09T09:04:38;95785.56;;;15.32;100.00
7662;BME280;30314;48.184;11.510;2022-09-09T09:07:18;95778.88;;;15.26;100.00
7662;BME280;30314;48.184;11.510;2022-09-09T09:09:57;95796.03;;;15.59;100.00
7662;BME280;30314;48.184;11.510;2022-09-09T09:12:43;95776.69;;;15.49;100.00
7662;BME280;30314;48.184;11.510;2022-09-09T09:15:19;95744.50;;;15.33;100.00
7662;BME280;30314;48.184;11.510;2022-09-09T09:17:50;95808.91;;;15.78;100.00
7662;BME280;30314;48.184;11.510;2022-09-09T09:20:23;95806.38;;;15.82;100.00
7662;BME280;30314;48.184;11.510;2022-09-09T09:23:22;95810.31;;;15.84;100.00
7662;BME280;30314;48.184;11.510;2022-09-09T09:25:58;95806.34;;;15.90;100.00
7662;BME280;30314;48.184;11.510;2022-09-09T09:28:30;95766.72;;;15.59;100.00
7662;BME280;30314;48.184;11.510;2022-09-09T09:31:09;95789.03;;;15.75;100.00
7662;BME280;30314;48.184;11.510;2022-09-09T09:33:47;95810.44;;;16.09;100.00
7662;BME280;30314;48.184;11.510;2022-09-09T09:36:19;95718.59;;;15.43;100.00
7662;BME280;30314;48.184;11.510;2022-09-09T09:38:54;95815.91;;;16.13;100.00
7662;BME280;30314;48.184;11.510;2022-09-09T09:41:43;95814.47;;;16.15;100.00
7662;BME280;30314;48.184;11.510;2022-09-09T09:44:26;95793.50;;;15.92;100.00
7662;BME280;30314;48.184;11.510;2022-09-09T09:47:07;95786.44;;;15.88;100.00
7662;BME280;30314;48.184;11.510;2022-09-09T09:49:36;95819.56;;;16.08;100.00
7662;BME280;30314;48.184;11.510;2022-09-09T09:52:05;95812.66;;;16.07;100.00
7662;BME280;30314;48.184;11.510;2022-09-09T09:54:38;95776.94;;;15.78;100.00
7662;BME280;30314;48.184;11.510;2022-09-09T09:57:14;95774.47;;;15.73;100.00
7662;BME280;30314;48.184;11.510;2022-09-09T09:59:45;95774.34;;;15.69;100.00
7662;BME280;30314;48.184;11.510;2022-09-09T10:02:22;95782.59;;;15.76;100.00
7662;BME280;30314;48.184;11.510;2022-09-09T10:05:05;95816.63;;;16.01;100.00
7662;BME280;30314;48.184;11.510;2022-09-09T10:07:35;95782.59;;;15.76;100.00
7662;BME280;30314;48.184;11.510;2022-09-09T10:10:05;95745.47;;;15.50;100.00
7662;BME280;30314;48.184;11.510;2022-09-09T10:12:42;95749.91;;;15.46;100.00
7662;BME280;30314;48.184;11.510;2022-09-09T10:15:29;95812.94;;;15.93;100.00
7662;BME280;30314;48.184;11.510;2022-09-09T10:18:08;95793.34;;;15.68;100.00
7662;BME280;30314;48.184;11.510;2022-09-09T10:20:47;95803.78;;;15.73;100.00
7662;BME280;30314;48.184;11.510;2022-09-09T10:23:29;95815.28;;;15.86;100.00
7662;BME280;30314;48.184;11.510;2022-09-09T10:26:16;95815.28;;;15.95;100.00
7662;BME280;30314;48.184;11.510;2022-09-09T10:29:10;95826.41;;;15.97;100.00
7662;BME280;30314;48.184;11.510;2022-09-09T10:31:49;95794.97;;;15.81;100.00
7662;BME280;30314;48.184;11.510;2022-09-09T10:34:34;95792.09;;;15.86;100.00
7662;BME280;30314;48.184;11.510;2022-09-09T10:37:16;95816.25;;;16.11;100.00
7662;BME280;30314;48.184;11.510;2022-09-09T10:39:54;95811.13;;;16.18;100.00
7662;BME280;30314;48.184;11.510;2022-09-09T10:42:30;95750.75;;;16.01;100.00
7662;BME280;30314;48.184;11.510;2022-09-09T10:45:10;95812.16;;;16.47;100.00
7662;BME280;30314;48.184;11.510;2022-09-09T10:47:57;95776.16;;;16.20;100.00
7662;BME280;30314;48.184;11.510;2022-09-09T10:50:43;95777.53;;;16.26;100.00
7662;BME280;30314;48.184;11.510;2022-09-09T10:53:37;95817.97;;;16.62;100.00
7662;BME280;30314;48.184;11.510;2022-09-09T10:56:09;95819.53;;;16.63;100.00
7662;BME280;30314;48.184;11.510;2022-09-09T10:58:41;95792.25;;;16.45;100.00
7662;BME280;30314;48.184;11.510;2022-09-09T11:01:16;95775.78;;;16.43;100.00
7662;BME280;30314;48.184;11.510;2022-09-09T11:03:51;95716.78;;;16.11;100.00
7662;BME280;30314;48.184;11.510;2022-09-09T11:06:30;95748.75;;;16.44;100.00
7662;BME280;30314;48.184;11.510;2022-09-09T11:09:00;95773.25;;;16.71;100.00
7662;BME280;30314;48.184;11.510;2022-09-09T11:11:34;95711.88;;;16.46;100.00
7662;BME280;30314;48.184;11.510;2022-09-09T11:14:10;95806.72;;;17.15;100.00
7662;BME280;30314;48.184;11.510;2022-09-09T11:16:44;95772.66;;;17.12;100.00
7662;BME280;30314;48.184;11.510;2022-09-09T11:19:17;95802.91;;;17.53;100.00
7662;BME280;30314;48.184;11.510;2022-09-09T11:21:50;95796.97;;;17.72;100.00
7662;BME280;30314;48.184;11.510;2022-09-09T11:24:22;95802.28;;;17.85;100.00
7662;BME280;30314;48.184;11.510;2022-09-09T11:26:54;95721.44;;;17.22;100.00
7662;BME280;30314;48.184;11.510;2022-09-09T11:29:43;95783.94;;;17.71;100.00
7662;BME280;30314;48.184;11.510;2022-09-09T11:32:36;95808.38;;;17.98;100.00
7662;BME280;30314;48.184;11.510;2022-09-09T11:35:21;95798.09;;;18.12;100.00
7662;BME280;30314;48.184;11.510;2022-09-09T11:38:05;95802.44;;;18.17;100.00
7662;BME280;30314;48.184;11.510;2022-09-09T11:40:36;95767.63;;;17.88;100.00
7662;BME280;30314;48.184;11.510;2022-09-09T11:43:10;95794.13;;;18.06;100.00
7662;BME280;30314;48.184;11.510;2022-09-09T11:45:39;95727.16;;;17.61;100.00
7662;BME280;30314;48.184;11.510;2022-09-09T11:48:22;95762.31;;;17.76;100.00
7662;BME280;30314;48.184;11.510;2022-09-09T11:50:57;95799.31;;;17.74;100.00
7662;BME280;30314;48.184;11.510;2022-09-09T11:53:28;95793.09;;;17.57;100.00
7662;BME280;30314;48.184;11.510;2022-09-09T11:56:26;95800.25;;;17.53;100.00
7662;BME280;30314;48.184;11.510;2022-09-09T11:58:57;95806.91;;;17.47;100.00
7662;BME280;30314;48.184;11.510;2022-09-09T12:01:28;95808.59;;;17.52;100.00
7662;BME280;30314;48.184;11.510;2022-09-09T12:04:17;95800.47;;;17.48;100.00
7662;BME280;30314;48.184;11.510;2022-09-09T12:06:52;95807.03;;;17.51;100.00
7662;BME280;30314;48.184;11.510;2022-09-09T12:09:30;95795.97;;;17.65;100.00
7662;BME280;30314;48.184;11.510;2022-09-09T12:14:56;95772.41;;;17.42;100.00
7662;BME280;30314;48.184;11.510;2022-09-09T12:17:28;95789.75;;;17.48;100.00
7662;BME280;30314;48.184;11.510;2022-09-09T12:20:02;95796.59;;;17.33;100.00
7662;BME280;30314;48.184;11.510;2022-09-09T12:22:37;95801.16;;;17.32;100.00
7662;BME280;30314;48.184;11.510;2022-09-09T12:25:14;95795.03;;;17.32;100.00
7662;BME280;30314;48.184;11.510;2022-09-09T12:27:59;95786.47;;;17.26;100.00
7662;BME280;30314;48.184;11.510;2022-09-09T12:30:32;95769.53;;;17.22;100.00
7662;BME280;30314;48.184;11.510;2022-09-09T12:33:10;95792.25;;;17.41;100.00
7662;BME280;30314;48.184;11.510;2022-09-09T12:35:38;95761.31;;;17.27;100.00
7662;BME280;30314;48.184;11.510;2022-09-09T12:38:13;95770.59;;;17.58;100.00
7662;BME280;30314;48.184;11.510;2022-09-09T12:40:54;95776.06;;;17.62;100.00
7662;BME280;30314;48.184;11.510;2022-09-09T12:43:24;95691.88;;;17.02;100.00
7662;BME280;30314;48.184;11.510;2022-09-09T12:45:54;95763.03;;;17.60;100.00
7662;BME280;30314;48.184;11.510;2022-09-09T12:48:30;95669.16;;;17.09;100.00
7662;BME280;30314;48.184;11.510;2022-09-09T12:51:00;95772.09;;;17.84;100.00
7662;BME280;30314;48.184;11.510;2022-09-09T12:53:30;95767.63;;;17.88;100.00
7662;BME280;30314;48.184;11.510;2022-09-09T12:56:05;95728.69;;;17.63;100.00
7662;BME280;30314;48.184;11.510;2022-09-09T12:58:36;95760.28;;;17.85;100.00
7662;BME280;30314;48.184;11.510;2022-09-09T13:01:05;95760.97;;;17.82;100.00
7662;BME280;30314;48.184;11.510;2022-09-09T13:03:42;95754.50;;;17.83;100.00
7662;BME280;30314;48.184;11.510;2022-09-09T13:06:19;95759.69;;;17.92;100.00
7662;BME280;30314;48.184;11.510;2022-09-09T13:08:56;95737.66;;;17.83;100.00
7662;BME280;30314;48.184;11.510;2022-09-09T13:11:29;95746.13;;;17.85;100.00
7662;BME280;30314;48.184;11.510;2022-09-09T13:13:58;95741.66;;;17.89;100.00
7662;BME280;30314;48.184;11.510;2022-09-09T13:16:28;95585.63;;;16.83;100.00
7662;BME280;30314;48.184;11.510;2022-09-09T13:18:59;95742.88;;;17.92;100.00
7662;BME280;30314;48.184;11.510;2022-09-09T13:21:32;95715.78;;;17.65;100.00
7662;BME280;30314;48.184;11.510;2022-09-09T13:24:01;95718.28;;;17.86;100.00
7662;BME280;30314;48.184;11.510;2022-09-09T13:26:31;95708.88;;;17.92;100.00
7662;BME280;30314;48.184;11.510;2022-09-09T13:29:16;95691.44;;;17.82;100.00
7662;BME280;30314;48.184;11.510;2022-09-09T13:31:48;95692.13;;;17.79;100.00
7662;BME280;30314;48.184;11.510;2022-09-09T13:34:27;95720.78;;;18.07;100.00
7662;BME280;30314;48.184;11.510;2022-09-09T13:36:59;95677.53;;;17.77;100.00
7662;BME280;30314;48.184;11.510;2022-09-09T13:39:29;95702.13;;;17.82;100.00
7662;BME280;30314;48.184;11.510;2022-09-09T13:41:58;95710.53;;;17.97;100.00
7662;BME280;30314;48.184;11.510;2022-09-09T13:44:29;95700.88;;;17.92;100.00
7662;BME280;30314;48.184;11.510;2022-09-09T13:47:00;95704.34;;;17.93;98.95
7662;BME280;30314;48.184;11.510;2022-09-09T13:49:35;95648.34;;;17.55;97.49
7662;BME280;30314;48.184;11.510;2022-09-09T13:52:05;95659.91;;;17.59;100.00
7662;BME280;30314;48.184;11.510;2022-09-09T13:54:34;95656.97;;;17.65;100.00
7662;BME280;30314;48.184;11.510;2022-09-09T13:57:03;95680.59;;;17.63;100.00
7662;BME280;30314;48.184;11.510;2022-09-09T13:59:33;95631.81;;;17.37;100.00
7662;BME280;30314;48.184;11.510;2022-09-09T14:02:20;95692.59;;;17.69;100.00
7662;BME280;30314;48.184;11.510;2022-09-09T14:04:49;95647.66;;;17.17;100.00
7662;BME280;30314;48.184;11.510;2022-09-09T14:07:21;95712.53;;;17.71;100.00
7662;BME280;30314;48.184;11.510;2022-09-09T14:09:49;95713.34;;;17.59;100.00
7662;BME280;30314;48.184;11.510;2022-09-09T14:12:19;95640.53;;;17.22;100.00
7662;BME280;30314;48.184;11.510;2022-09-09T14:14:47;95687.91;;;17.37;100.00
7662;BME280;30314;48.184;11.510;2022-09-09T14:17:14;95658.34;;;17.17;100.00
7662;BME280;30314;48.184;11.510;2022-09-09T14:19:42;95667.03;;;17.14;100.00
7662;BME280;30314;48.184;11.510;2022-09-09T14:22:12;95695.69;;;17.42;100.00
7662;BME280;30314;48.184;11.510;2022-09-09T14:24:39;95720.34;;;17.64;100.00
7662;BME280;30314;48.184;11.510;2022-09-09T14:27:08;95632.88;;;16.95;100.00
7662;BME280;30314;48.184;11.510;2022-09-09T14:29:37;95666.34;;;17.17;100.00
7662;BME280;30314;48.184;11.510;2022-09-09T14:32:05;95709.06;;;17.30;100.00
7662;BME280;30314;48.184;11.510;2022-09-09T14:34:38;95606.44;;;16.65;100.00
7662;BME280;30314;48.184;11.510;2022-09-09T14:37:05;95729.97;;;17.53;100.00
7662;BME280;30314;48.184;11.510;2022-09-09T14:39:33;95669.16;;;16.96;100.00
7662;BME280;30314;48.184;11.510;2022-09-09T14:42:01;95711.09;;;17.33;100.00
7662;BME280;30314;48.184;11.510;2022-09-09T14:44:29;95663.81;;;16.96;100.00
7662;BME280;30314;48.184;11.510;2022-09-09T14:46:58;95645.13;;;16.71;100.00
7662;BME280;30314;48.184;11.510;2022-09-09T14:49:25;95701.53;;;17.19;100.00
7662;BME280;30314;48.184;11.510;2022-09-09T14:51:53;95665.19;;;17.02;100.00
7662;BME280;30314;48.184;11.510;2022-09-09T14:54:21;95737.09;;;17.49;100.00
7662;BME280;30314;48.184;11.510;2022-09-09T14:56:49;95717.66;;;17.23;100.00
7662;BME280;30314;48.184;11.510;2022-09-09T14:59:17;95707.47;;;17.13;100.00
7662;BME280;30314;48.184;11.510;2022-09-09T15:01:44;95732.59;;;17.12;100.00
7662;BME280;30314;48.184;11.510;2022-09-09T15:04:14;95739.50;;;17.25;100.00
7662;BME280;30314;48.184;11.510;2022-09-09T15:06:45;95732.56;;;17.24;100.00
7662;BME280;30314;48.184;11.510;2022-09-09T15:09:14;95747.28;;;17.30;100.00
7662;BME280;30314;48.184;11.510;2022-09-09T15:11:42;95745.94;;;17.24;100.00
7662;BME280;30314;48.184;11.510;2022-09-09T15:14:10;95738.25;;;17.23;100.00
7662;BME280;30314;48.184;11.510;2022-09-09T15:16:39;95741.38;;;17.25;100.00
7662;BME280;30314;48.184;11.510;2022-09-09T15:19:07;95730.81;;;17.28;100.00
7662;BME280;30314;48.184;11.510;2022-09-09T15:21:37;95728.44;;;17.39;100.00
7662;BME280;30314;48.184;11.510;2022-09-09T15:24:05;95734.75;;;17.47;100.00
7662;BME280;30314;48.184;11.510;2022-09-09T15:26:35;95723.84;;;17.52;100.00
7662;BME280;30314;48.184;11.510;2022-09-09T15:29:05;95724.50;;;17.49;100.00
7662;BME280;30314;48.184;11.510;2022-09-09T15:31:34;95717.84;;;17.43;100.00
7662;BME280;30314;48.184;11.510;2022-09-09T15:34:03;95716.16;;;17.51;100.00
7662;BME280;30314;48.184;11.510;2022-09-09T15:36:33;95712.69;;;17.50;100.00
7662;BME280;30314;48.184;11.510;2022-09-09T15:39:05;95712.69;;;17.50;100.00
7662;BME280;30314;48.184;11.510;2022-09-09T15:41:33;95717.38;;;17.53;100.00
7662;BME280;30314;48.184;11.510;2022-09-09T15:44:01;95702.66;;;17.59;100.00